createdAt,value
2022-12-13T00:00:33.487Z,5.53
2022-12-13T00:03:00.568Z,5.60
2022-12-13T00:05:27.644Z,5.80
2022-12-13T00:07:54.879Z,4.80
2022-12-13T00:10:21.996Z,5.40
2022-12-13T00:12:49.034Z,5.30
2022-12-13T00:15:16.488Z,5.77
2022-12-13T00:17:45.167Z,5.30
2022-12-13T00:20:12.652Z,5.07
2022-12-13T00:22:39.730Z,5.50
2022-12-13T00:25:06.926Z,5.30
2022-12-13T00:27:33.987Z,4.57
2022-12-13T00:30:01.064Z,4.83
2022-12-13T00:32:28.109Z,5.07
2022-12-13T00:34:55.174Z,4.70
2022-12-13T00:37:22.219Z,4.20
2022-12-13T00:39:49.278Z,4.97
2022-12-13T00:42:16.409Z,4.60
2022-12-13T00:44:43.461Z,4.33
2022-12-13T00:47:10.529Z,4.60
2022-12-13T00:49:37.658Z,4.87
2022-12-13T00:52:04.829Z,5.33
2022-12-13T00:54:31.898Z,5.03
2022-12-13T00:56:58.967Z,5.03
2022-12-13T00:59:26.024Z,4.90
2022-12-13T01:01:53.491Z,4.70
2022-12-13T01:04:20.657Z,4.30
2022-12-13T01:06:49.927Z,3.97
2022-12-13T01:09:18.903Z,4.10
2022-12-13T01:11:46.816Z,5.07
2022-12-13T01:14:14.021Z,4.20
2022-12-13T01:16:41.202Z,4.10
2022-12-13T01:19:08.269Z,4.23
2022-12-13T01:21:35.507Z,4.33
2022-12-13T01:24:03.696Z,4.87
2022-12-13T01:26:30.870Z,4.20
2022-12-13T01:28:58.159Z,3.87
2022-12-13T01:31:25.232Z,4.97
2022-12-13T01:33:52.325Z,4.33
2022-12-13T01:36:27.078Z,4.87
2022-12-13T01:38:58.326Z,4.57
2022-12-13T01:41:27.331Z,4.67
2022-12-13T01:43:55.819Z,4.13
2022-12-13T01:46:22.956Z,4.90
2022-12-13T01:48:56.372Z,5.03
2022-12-13T01:51:27.608Z,4.87
2022-12-13T01:53:57.288Z,5.00
2022-12-13T01:56:28.219Z,4.37
2022-12-13T01:58:55.910Z,5.13
2022-12-13T02:01:23.442Z,4.77
2022-12-13T02:03:50.569Z,4.80
2022-12-13T02:06:20.137Z,5.40
2022-12-13T02:08:47.539Z,5.00
2022-12-13T02:11:15.159Z,5.37
2022-12-13T02:13:42.227Z,4.67
2022-12-13T02:16:41.922Z,4.20
2022-12-13T02:19:27.347Z,4.60
2022-12-13T02:22:00.192Z,5.27
2022-12-13T02:24:47.550Z,4.27
2022-12-13T02:27:30.189Z,3.87
2022-12-13T02:30:17.206Z,4.40
2022-12-13T02:32:50.149Z,4.47
2022-12-13T02:35:35.692Z,4.27
2022-12-13T02:38:24.409Z,4.63
2022-12-13T02:41:11.277Z,4.23
2022-12-13T02:43:46.035Z,4.33
2022-12-13T02:46:14.677Z,4.30
2022-12-13T02:48:43.099Z,4.80
2022-12-13T02:51:11.263Z,4.40
2022-12-13T02:53:40.389Z,3.90
2022-12-13T02:56:07.470Z,3.93
2022-12-13T02:58:36.338Z,4.50
2022-12-13T03:01:28.625Z,4.50
2022-12-13T03:04:02.546Z,4.23
2022-12-13T03:06:41.881Z,4.40
2022-12-13T03:09:11.819Z,4.97
2022-12-13T03:12:17.899Z,4.63
2022-12-13T03:15:11.282Z,3.93
2022-12-13T03:17:40.936Z,3.90
2022-12-13T03:20:12.581Z,4.00
2022-12-13T03:22:50.711Z,4.10
2022-12-13T03:25:31.356Z,3.97
2022-12-13T03:28:01.265Z,3.83
2022-12-13T03:30:29.447Z,4.03
2022-12-13T03:32:56.497Z,3.43
2022-12-13T03:35:23.796Z,4.20
2022-12-13T03:37:51.534Z,4.57
2022-12-13T03:40:19.181Z,4.80
2022-12-13T03:42:46.249Z,4.53
2022-12-13T03:45:13.624Z,4.17
2022-12-13T03:47:40.967Z,4.03
2022-12-13T03:50:25.821Z,4.37
2022-12-13T03:53:01.556Z,4.20
2022-12-13T03:55:29.143Z,4.50
2022-12-13T03:57:56.620Z,4.03
2022-12-13T04:00:23.736Z,3.80
2022-12-13T04:02:50.926Z,4.73
2022-12-13T04:05:18.460Z,4.57
2022-12-13T04:07:48.203Z,4.37
2022-12-13T04:10:25.859Z,4.57
2022-12-13T04:13:13.216Z,4.80
2022-12-13T04:15:40.405Z,4.87
2022-12-13T04:18:07.467Z,4.73
2022-12-13T04:20:34.628Z,4.23
2022-12-13T04:23:10.321Z,4.03
2022-12-13T04:25:37.918Z,4.17
2022-12-13T04:28:04.982Z,4.47
2022-12-13T04:30:32.064Z,4.40
2022-12-13T04:32:59.136Z,4.40
2022-12-13T04:35:26.411Z,4.37
2022-12-13T04:37:53.719Z,4.60
2022-12-13T04:40:21.706Z,4.30
2022-12-13T04:42:54.204Z,4.23
2022-12-13T04:45:22.953Z,4.63
2022-12-13T04:47:50.057Z,4.13
2022-12-13T04:50:17.571Z,4.43
2022-12-13T04:52:44.907Z,4.27
2022-12-13T04:55:12.011Z,4.40
2022-12-13T04:57:39.224Z,4.93
2022-12-13T05:00:06.992Z,4.93
2022-12-13T05:02:34.080Z,4.67
2022-12-13T05:05:01.155Z,4.30
2022-12-13T05:07:28.266Z,5.27
2022-12-13T05:09:55.346Z,5.00
2022-12-13T05:12:23.514Z,4.67
2022-12-13T05:14:51.667Z,4.77
2022-12-13T05:17:18.801Z,5.17
2022-12-13T05:19:45.920Z,5.67
2022-12-13T05:22:19.883Z,5.17
2022-12-13T05:24:48.419Z,5.50
2022-12-13T05:27:24.114Z,5.43
2022-12-13T05:30:03.208Z,6.03
2022-12-13T05:32:43.019Z,6.07
2022-12-13T05:35:23.213Z,5.30
2022-12-13T05:37:53.352Z,5.07
2022-12-13T05:40:21.846Z,5.67
2022-12-13T05:42:48.951Z,5.27
2022-12-13T05:45:17.941Z,6.07
2022-12-13T05:47:45.265Z,5.07
2022-12-13T05:50:12.791Z,5.30
2022-12-13T05:52:39.872Z,5.27
2022-12-13T05:55:07.082Z,5.60
2022-12-13T05:57:34.265Z,5.73
2022-12-13T06:00:01.484Z,5.20
2022-12-13T06:02:28.893Z,5.70
2022-12-13T06:04:56.143Z,5.50
2022-12-13T06:07:23.250Z,5.40
2022-12-13T06:09:50.280Z,6.13
2022-12-13T06:12:32.059Z,5.67
2022-12-13T06:15:00.996Z,5.63
2022-12-13T06:17:46.798Z,5.13
2022-12-13T06:20:23.144Z,5.07
2022-12-13T06:22:51.200Z,5.13
2022-12-13T06:25:31.064Z,5.63
2022-12-13T06:27:58.932Z,4.83
2022-12-13T06:30:28.487Z,5.07
2022-12-13T06:32:55.553Z,5.10
2022-12-13T06:35:28.385Z,4.83
2022-12-13T06:38:01.573Z,4.67
2022-12-13T06:40:30.184Z,5.03
2022-12-13T06:42:57.482Z,5.03
2022-12-13T06:45:24.838Z,4.80
2022-12-13T06:47:51.954Z,4.67
2022-12-13T06:50:19.027Z,4.83
2022-12-13T06:52:48.849Z,4.93
2022-12-13T06:55:23.844Z,5.00
2022-12-13T06:57:51.690Z,5.03
2022-12-13T07:00:22.444Z,5.00
2022-12-13T07:02:56.725Z,5.27
2022-12-13T07:05:25.101Z,4.90
2022-12-13T07:07:52.204Z,5.23
2022-12-13T07:10:22.495Z,4.93
2022-12-13T07:12:50.176Z,4.60
2022-12-13T07:15:17.316Z,5.60
2022-12-13T07:17:44.565Z,5.33
2022-12-13T07:20:13.567Z,5.20
2022-12-13T07:22:47.232Z,4.73
2022-12-13T07:25:27.027Z,4.33
2022-12-13T07:28:03.397Z,5.23
2022-12-13T07:30:31.410Z,5.10
2022-12-13T07:32:58.454Z,5.20
2022-12-13T07:35:25.520Z,5.13
2022-12-13T07:37:52.571Z,4.40
2022-12-13T07:40:19.825Z,5.13
2022-12-13T07:42:53.391Z,4.93
2022-12-13T07:45:21.081Z,4.50
2022-12-13T07:47:48.252Z,5.10
2022-12-13T07:50:24.807Z,4.90
2022-12-13T07:52:53.443Z,5.30
2022-12-13T07:55:23.492Z,5.53
2022-12-13T07:58:14.552Z,5.53
2022-12-13T08:00:45.921Z,5.00
2022-12-13T08:03:24.975Z,5.03
2022-12-13T08:06:03.557Z,6.27
2022-12-13T08:08:32.093Z,5.93
2022-12-13T08:11:06.201Z,5.00
2022-12-13T08:13:33.631Z,5.17
2022-12-13T08:16:01.691Z,6.20
2022-12-13T08:18:29.691Z,5.33
2022-12-13T08:21:18.529Z,5.50
2022-12-13T08:23:53.617Z,6.00
2022-12-13T08:26:20.706Z,5.70
2022-12-13T08:28:47.765Z,5.67
2022-12-13T08:31:14.993Z,5.67
2022-12-13T08:33:43.670Z,5.70
2022-12-13T08:36:14.840Z,5.67
2022-12-13T08:38:42.157Z,5.93
2022-12-13T08:41:09.770Z,5.33
2022-12-13T08:43:36.898Z,4.90
2022-12-13T08:46:04.408Z,4.50
2022-12-13T08:48:31.752Z,4.47
2022-12-13T08:51:02.739Z,4.40
2022-12-13T08:53:32.776Z,4.07
2022-12-13T08:56:11.295Z,3.93
2022-12-13T08:58:39.097Z,5.10
2022-12-13T09:01:07.414Z,5.00
2022-12-13T09:03:34.669Z,4.97
2022-12-13T09:06:11.489Z,4.53
2022-12-13T09:08:39.128Z,4.93
2022-12-13T09:11:11.492Z,4.90
2022-12-13T09:13:51.195Z,5.13
2022-12-13T09:16:24.525Z,4.37
2022-12-13T09:18:55.181Z,4.57
2022-12-13T09:21:30.927Z,4.63
2022-12-13T09:24:01.350Z,4.30
2022-12-13T09:26:29.328Z,4.53
2022-12-13T09:29:11.467Z,4.80
2022-12-13T09:31:40.337Z,5.07
2022-12-13T09:34:08.453Z,4.40
2022-12-13T09:36:35.579Z,5.43
2022-12-13T09:39:02.706Z,4.63
2022-12-13T09:41:41.488Z,5.07
2022-12-13T09:44:32.838Z,4.63
2022-12-13T09:47:02.781Z,4.60
2022-12-13T09:49:36.363Z,5.07
2022-12-13T09:52:11.733Z,4.40
2022-12-13T09:54:49.472Z,4.53
2022-12-13T09:57:30.912Z,4.53
2022-12-13T10:00:02.139Z,4.67
2022-12-13T10:02:30.463Z,5.00
2022-12-13T10:05:22.783Z,4.67
2022-12-13T10:07:52.980Z,4.83
2022-12-13T10:10:20.253Z,4.53
2022-12-13T10:12:49.444Z,5.07
2022-12-13T10:15:22.200Z,4.87
2022-12-13T10:17:55.774Z,4.97
2022-12-13T10:20:25.766Z,4.33
2022-12-13T10:23:30.061Z,4.40
2022-12-13T10:25:50.988Z,4.87
2022-12-13T10:28:20.231Z,4.23
2022-12-13T10:30:47.278Z,4.33
2022-12-13T10:33:23.732Z,4.40
2022-12-13T10:36:10.562Z,3.60
2022-12-13T10:38:38.850Z,4.37
2022-12-13T10:41:25.917Z,3.87
2022-12-13T10:44:13.268Z,3.77
2022-12-13T10:46:41.818Z,3.43
2022-12-13T10:49:19.431Z,3.67
2022-12-13T10:51:47.030Z,4.30
2022-12-13T10:54:18.683Z,4.03
2022-12-13T10:56:50.825Z,3.60
2022-12-13T10:59:28.738Z,4.07
2022-12-13T11:01:55.904Z,3.97
2022-12-13T11:04:33.671Z,4.00
2022-12-13T11:07:02.217Z,4.37
2022-12-13T11:09:38.352Z,4.20
2022-12-13T11:12:13.981Z,3.83
2022-12-13T11:14:48.132Z,3.43
2022-12-13T11:17:17.806Z,3.90
2022-12-13T11:19:46.479Z,3.57
2022-12-13T11:22:24.226Z,3.77
2022-12-13T11:24:52.988Z,4.20
2022-12-13T11:27:20.036Z,3.63
2022-12-13T11:30:02.204Z,3.57
2022-12-13T11:32:43.404Z,3.63
2022-12-13T11:35:22.559Z,3.43
2022-12-13T11:38:01.058Z,3.77
2022-12-13T11:40:29.795Z,4.03
2022-12-13T11:43:06.287Z,4.10
2022-12-13T11:45:54.149Z,3.53
2022-12-13T11:48:39.872Z,3.57
2022-12-13T11:51:09.453Z,3.57
2022-12-13T11:53:36.524Z,3.90
2022-12-13T11:56:11.913Z,3.53
2022-12-13T11:59:02.624Z,3.40
2022-12-13T12:01:51.881Z,3.37
2022-12-13T12:04:38.154Z,4.20
2022-12-13T12:07:31.181Z,3.77
2022-12-13T12:09:59.614Z,3.33
2022-12-13T12:12:34.184Z,3.67
2022-12-13T12:15:15.855Z,3.00
2022-12-13T12:17:44.107Z,3.30
2022-12-13T12:20:23.685Z,3.10
2022-12-13T12:22:59.904Z,2.40
2022-12-13T12:25:29.908Z,3.23
2022-12-13T12:28:02.934Z,2.77
2022-12-13T12:30:40.741Z,2.77
2022-12-13T12:33:26.197Z,2.90
2022-12-13T12:36:15.299Z,3.37
2022-12-13T12:38:48.536Z,3.10
2022-12-13T12:41:33.885Z,3.20
2022-12-13T12:44:03.672Z,3.23
2022-12-13T12:46:30.774Z,3.03
2022-12-13T12:49:16.898Z,3.40
2022-12-13T12:51:43.954Z,2.70
2022-12-13T12:54:32.167Z,3.03
2022-12-13T12:57:04.786Z,2.80
2022-12-13T12:59:37.796Z,2.97
2022-12-13T13:02:04.896Z,3.30
2022-12-13T13:04:35.896Z,2.90
2022-12-13T13:07:22.455Z,3.03
2022-12-13T13:09:51.540Z,3.13
2022-12-13T13:12:29.288Z,3.43
2022-12-13T13:14:57.736Z,3.20
2022-12-13T13:17:24.745Z,3.00
2022-12-13T13:20:12.277Z,3.37
2022-12-13T13:22:44.242Z,2.90
2022-12-13T13:25:25.876Z,2.80
2022-12-13T13:27:59.994Z,3.07
2022-12-13T13:30:27.300Z,2.70
2022-12-13T13:32:55.868Z,2.87
2022-12-13T13:35:29.056Z,3.20
2022-12-13T13:37:56.400Z,2.83
2022-12-13T13:40:31.885Z,2.70
2022-12-13T13:43:11.107Z,2.47
2022-12-13T13:45:50.252Z,2.63
2022-12-13T13:48:17.302Z,2.73
2022-12-13T13:50:56.751Z,2.80
2022-12-13T13:53:43.035Z,2.23
2022-12-13T13:56:22.384Z,2.23
2022-12-13T13:58:52.241Z,2.77
2022-12-13T14:01:45.393Z,2.87
2022-12-13T14:04:34.079Z,2.60
2022-12-13T14:07:11.315Z,2.50
2022-12-13T14:09:50.373Z,2.57
2022-12-13T14:12:20.226Z,2.63
2022-12-13T14:15:01.422Z,2.83
2022-12-13T14:17:32.541Z,2.60
2022-12-13T14:20:02.701Z,2.20
2022-12-13T14:22:48.548Z,2.70
2022-12-13T14:25:27.869Z,2.27
2022-12-13T14:27:59.466Z,2.97
2022-12-13T14:30:28.011Z,3.63
2022-12-13T14:32:56.049Z,2.93
2022-12-13T14:35:30.399Z,3.57
2022-12-13T14:37:58.828Z,2.83
2022-12-13T14:40:28.142Z,4.00
2022-12-13T14:42:55.499Z,3.73
2022-12-13T14:45:24.573Z,3.40
2022-12-13T14:47:54.021Z,3.60
2022-12-13T14:50:21.222Z,2.83
2022-12-13T14:52:50.550Z,3.40
2022-12-13T14:55:26.777Z,2.97
2022-12-13T14:57:57.744Z,3.20
2022-12-13T15:00:33.124Z,3.83
2022-12-13T15:03:01.219Z,3.37
2022-12-13T15:05:34.355Z,3.17
2022-12-13T15:08:11.300Z,3.67
2022-12-13T15:10:48.071Z,3.90
2022-12-13T15:13:24.231Z,3.47
2022-12-13T15:15:56.242Z,3.97
2022-12-13T15:18:24.935Z,4.23
2022-12-13T15:20:53.102Z,3.30
2022-12-13T15:23:23.751Z,3.43
2022-12-13T15:25:56.245Z,3.80
2022-12-13T15:28:28.205Z,3.80
2022-12-13T15:30:57.133Z,3.63
2022-12-13T15:33:33.410Z,4.03
2022-12-13T15:36:05.244Z,4.47
2022-12-13T15:38:32.512Z,3.87
2022-12-13T15:41:00.699Z,4.00
2022-12-13T15:43:37.400Z,3.80
2022-12-13T15:46:07.737Z,3.67
2022-12-13T15:48:39.854Z,3.93
2022-12-13T15:51:09.781Z,3.90
2022-12-13T15:53:37.853Z,3.87
2022-12-13T15:56:24.904Z,4.27
2022-12-13T15:58:55.117Z,4.20
2022-12-13T16:01:26.363Z,3.67
2022-12-13T16:03:53.554Z,4.30
2022-12-13T16:06:25.593Z,3.93
2022-12-13T16:08:53.831Z,4.20
2022-12-13T16:11:34.943Z,4.43
2022-12-13T16:14:26.043Z,3.73
2022-12-13T16:16:54.025Z,4.80
2022-12-13T16:19:21.125Z,4.13
2022-12-13T16:21:48.217Z,4.23
2022-12-13T16:24:15.292Z,3.70
2022-12-13T16:26:46.577Z,3.33
2022-12-13T16:29:16.212Z,4.00
2022-12-13T16:31:47.049Z,3.90
2022-12-13T16:34:14.813Z,3.80
2022-12-13T16:36:46.127Z,4.40
2022-12-13T16:39:14.732Z,4.13
2022-12-13T16:41:43.926Z,3.40
2022-12-13T16:44:19.523Z,3.53
2022-12-13T16:47:13.038Z,3.67
2022-12-13T16:49:33.614Z,3.83
2022-12-13T16:52:00.964Z,4.07
2022-12-13T16:54:28.016Z,4.43
2022-12-13T16:56:55.255Z,3.77
2022-12-13T16:59:23.510Z,4.50
2022-12-13T17:01:51.041Z,4.60
2022-12-13T17:04:21.267Z,4.27
2022-12-13T17:06:49.973Z,4.20
2022-12-13T17:09:17.536Z,5.67
2022-12-13T17:11:44.600Z,4.77
2022-12-13T17:14:11.729Z,4.30
2022-12-13T17:16:38.884Z,4.63
2022-12-13T17:19:05.973Z,5.63
2022-12-13T17:21:33.093Z,5.80
2022-12-13T17:24:01.033Z,4.83
2022-12-13T17:26:29.696Z,5.73
2022-12-13T17:28:56.905Z,4.93
2022-12-13T17:31:24.042Z,5.13
2022-12-13T17:33:52.354Z,5.10
2022-12-13T17:36:19.448Z,5.43
2022-12-13T17:38:47.275Z,4.97
2022-12-13T17:41:14.989Z,5.07
2022-12-13T17:43:43.231Z,5.37
2022-12-13T17:46:12.594Z,5.83
2022-12-13T17:48:41.297Z,5.00
2022-12-13T17:51:09.705Z,5.27
2022-12-13T17:53:37.273Z,5.73
2022-12-13T17:56:06.413Z,5.57
2022-12-13T17:58:33.684Z,5.23
2022-12-13T18:01:09.918Z,5.70
2022-12-13T18:03:37.005Z,6.37
2022-12-13T18:06:04.138Z,6.40
2022-12-13T18:08:34.239Z,6.83
2022-12-13T18:13:48.329Z,6.83
2022-12-13T18:16:22.276Z,6.87
2022-12-13T18:18:54.927Z,7.67
2022-12-13T18:21:23.020Z,6.20
2022-12-13T18:23:55.840Z,7.87
2022-12-13T18:26:24.007Z,7.00
2022-12-13T18:28:51.547Z,6.93
2022-12-13T18:31:20.079Z,6.33
2022-12-13T18:33:48.041Z,6.70
2022-12-13T18:36:16.210Z,7.00
2022-12-13T18:38:43.728Z,7.17
2022-12-13T18:41:13.865Z,7.13
2022-12-13T18:43:41.546Z,6.53
2022-12-13T18:46:09.221Z,7.23
2022-12-13T18:48:36.308Z,7.20
2022-12-13T18:51:05.041Z,6.83
2022-12-13T18:53:32.664Z,7.20
2022-12-13T18:56:04.700Z,6.37
2022-12-13T18:58:35.799Z,6.93
2022-12-13T19:01:03.522Z,7.17
2022-12-13T19:03:31.062Z,6.30
2022-12-13T19:05:58.967Z,7.10
2022-12-13T19:08:26.653Z,7.20
2022-12-13T19:10:54.299Z,6.97
2022-12-13T19:13:23.004Z,8.60
2022-12-13T19:15:50.957Z,7.23
2022-12-13T19:18:18.073Z,7.77
2022-12-13T19:20:46.780Z,6.90
2022-12-13T19:23:13.849Z,7.17
2022-12-13T19:25:40.942Z,7.37
2022-12-13T19:28:08.025Z,7.03
2022-12-13T19:30:35.123Z,7.03
2022-12-13T19:33:02.211Z,7.87
2022-12-13T19:35:29.262Z,7.70
2022-12-13T19:37:56.315Z,8.63
2022-12-13T19:40:23.445Z,8.37
2022-12-13T19:42:50.465Z,8.37
2022-12-13T19:45:17.609Z,8.07
2022-12-13T19:47:44.887Z,8.60
2022-12-13T19:50:15.808Z,7.97
2022-12-13T19:52:42.894Z,8.47
2022-12-13T19:55:11.027Z,8.53
2022-12-13T19:57:38.076Z,8.57
2022-12-13T20:00:05.793Z,7.13
2022-12-13T20:02:32.915Z,7.60
2022-12-13T20:04:59.981Z,6.73
2022-12-13T20:07:27.114Z,6.60
2022-12-13T20:09:54.213Z,6.10
2022-12-13T20:12:21.298Z,6.67
2022-12-13T20:14:48.441Z,6.23
2022-12-13T20:17:15.493Z,6.50
2022-12-13T20:19:42.590Z,6.53
2022-12-13T20:22:09.686Z,7.27
2022-12-13T20:24:36.881Z,7.40
2022-12-13T20:27:04.023Z,6.73
2022-12-13T20:29:31.084Z,6.77
2022-12-13T20:31:58.283Z,6.57
2022-12-13T20:34:25.780Z,7.10
2022-12-13T20:36:52.881Z,6.70
2022-12-13T20:39:20.896Z,6.80
2022-12-13T20:41:48.145Z,6.70
2022-12-13T20:44:15.460Z,6.27
2022-12-13T20:46:42.833Z,6.87
2022-12-13T20:49:10.125Z,5.90
2022-12-13T20:51:38.236Z,7.17
2022-12-13T20:54:05.346Z,6.97
2022-12-13T20:56:35.141Z,7.10
2022-12-13T20:59:03.068Z,6.70
2022-12-13T21:01:31.460Z,7.37
2022-12-13T21:04:00.163Z,7.33
2022-12-13T21:06:28.425Z,7.10
2022-12-13T21:08:56.595Z,7.07
2022-12-13T21:11:31.497Z,7.67
2022-12-13T21:14:15.239Z,6.83
2022-12-13T21:16:47.194Z,7.73
2022-12-13T21:19:15.552Z,7.53
2022-12-13T21:21:42.642Z,7.83
2022-12-13T21:24:10.365Z,7.30
2022-12-13T21:26:37.440Z,7.90
2022-12-13T21:29:06.531Z,7.53
2022-12-13T21:31:33.972Z,7.37
2022-12-13T21:34:01.934Z,7.90
2022-12-13T21:36:29.894Z,7.03
2022-12-13T21:38:57.854Z,7.90
2022-12-13T21:41:25.275Z,7.83
2022-12-13T21:43:52.527Z,6.47
2022-12-13T21:46:25.953Z,7.90
2022-12-13T21:48:57.140Z,7.43
2022-12-13T21:51:24.953Z,8.37
2022-12-13T21:53:52.482Z,7.30
2022-12-13T21:56:39.378Z,7.37
2022-12-13T21:59:15.945Z,7.90
2022-12-13T22:02:15.886Z,7.70
2022-12-13T22:04:46.352Z,7.70
2022-12-13T22:07:15.947Z,7.73
2022-12-13T22:09:43.397Z,7.70
2022-12-13T22:12:11.604Z,6.80
2022-12-13T22:14:38.704Z,7.37
2022-12-13T22:17:05.880Z,8.67
2022-12-13T22:19:32.960Z,8.17
2022-12-13T22:22:00.154Z,7.43
2022-12-13T22:24:27.258Z,7.13
2022-12-13T22:26:54.441Z,8.17
2022-12-13T22:29:21.543Z,7.00
2022-12-13T22:31:49.362Z,7.40
2022-12-13T22:34:16.595Z,7.23
2022-12-13T22:36:43.847Z,7.07
2022-12-13T22:39:17.967Z,7.17
2022-12-13T22:41:45.603Z,7.43
2022-12-13T22:44:13.162Z,7.93
2022-12-13T22:46:40.390Z,7.83
2022-12-13T22:49:08.323Z,7.70
2022-12-13T22:51:36.150Z,7.13
2022-12-13T22:54:03.392Z,8.10
2022-12-13T22:56:30.508Z,7.77
2022-12-13T22:58:58.475Z,7.17
2022-12-13T23:01:27.174Z,6.63
2022-12-13T23:03:54.635Z,7.13
2022-12-13T23:06:23.435Z,6.70
2022-12-13T23:08:51.607Z,7.37
2022-12-13T23:11:37.238Z,8.23
2022-12-13T23:14:05.708Z,7.83
2022-12-13T23:16:33.731Z,7.67
2022-12-13T23:19:32.261Z,7.67
2022-12-13T23:21:48.842Z,7.60
2022-12-13T23:24:16.376Z,7.90
2022-12-13T23:26:43.448Z,7.23
2022-12-13T23:29:11.158Z,7.43
2022-12-13T23:31:39.479Z,7.07
2022-12-13T23:34:06.517Z,8.90
2022-12-13T23:36:34.076Z,8.20
2022-12-13T23:39:01.902Z,8.50
2022-12-13T23:41:33.675Z,8.10
2022-12-13T23:44:01.417Z,7.17
2022-12-13T23:46:33.087Z,8.13
2022-12-13T23:49:00.883Z,7.70
2022-12-13T23:51:28.398Z,8.17
2022-12-13T23:53:55.665Z,7.77
2022-12-13T23:56:23.446Z,7.77
2022-12-13T23:58:50.546Z,7.90
